Latest Weather Observations for Gove Airport

IDD60801

Issued at 1:11 am CST Monday 17 December 2018 (issued every 10 minutes, with the page automatically refreshed every 10 minutes)

About weather observations | Map of weather stations | Latest weather observations for NT | Other Formats
Station Details ID: 014508 Name: GOVE AIRPORT Lat: -12.27 Lon: 136.82 Height: 51.6 m
Data from the previous 72 hours. | See also: Recent months at Gove Airport
Date/Time
CST
Temp
°C
App
Temp
°C
Dew
Point
°C
Rel
Hum
%
Delta-T
°C
Wind Press
QNH
hPa
Press
MSL
hPa
Rain since
9am
mm
Dir  Spd
km/h
Gust
km/h
Spd
kts
Gust
kts
17/01:00am 28.0 31.5 25.5 86 1.8 NW 17 22 9 12 1005.8 1005.5 0.0
17/12:30am 28.2 32.1 25.4 85 2.0 NW 15 20 8 11 1006.3 1006.0 0.0
17/12:00am 28.1 32.1 25.6 86 1.8 NW 15 20 8 11 1006.8 1006.5 0.0
 
Date/Time
CST
Temp
°C
App
Temp
°C
Dew
Point
°C
Rel
Hum
%
Delta-T
°C
Wind Press
QNH
hPa
Press
MSL
hPa
Rain since
9am
mm
Dir  Spd
km/h
Gust
km/h
Spd
kts
Gust
kts
16/11:30pm 28.2 33.1 25.8 87 1.7 NW 11 15 6 8 1007.1 1006.8 0.0
16/11:00pm 28.5 32.6 25.7 85 2.0 NNW 15 19 8 10 1007.3 1007.0 0.0
16/10:30pm 28.6 33.1 25.8 85 2.0 NW 13 17 7 9 1007.5 1007.1 0.0
16/10:00pm 28.9 33.0 25.8 83 2.2 NW 15 20 8 11 1007.7 1007.3 0.0
16/09:30pm 29.3 33.2 26.1 83 2.3 NW 17 24 9 13 1007.7 1007.3 0.0
16/09:00pm 29.5 33.5 26.7 85 2.0 NNW 19 24 10 13 1007.9 1007.5 0.0
16/08:30pm 29.4 33.4 26.8 86 1.9 NNW 19 24 10 13 1007.7 1007.3 0.0
16/08:00pm 29.6 33.0 26.7 84 2.1 NNW 22 28 12 15 1006.9 1006.6 0.0
16/07:30pm 29.9 32.8 26.6 82 2.4 NNW 24 30 13 16 1006.5 1006.2 0.0
16/07:00pm 30.2 33.2 26.7 81 2.5 NNW 24 33 13 18 1005.8 1005.5 0.0
16/06:30pm 31.0 33.7 25.1 71 4.2 NNW 20 26 11 14 1005.5 1005.2 0.0
16/06:00pm 31.8 34.1 25.6 69 4.4 NNW 24 33 13 18 1005.2 1004.9 0.0
16/05:30pm 33.1 35.1 25.2 63 5.6 NNW 24 32 13 17 1004.7 1004.4 0.0
16/05:00pm 33.8 35.9 25.4 61 6.0 NNW 24 33 13 18 1004.4 1004.1 0.0
16/04:30pm 34.4 35.8 24.8 57 6.8 NNW 26 32 14 17 1004.5 1004.2 0.0
16/04:00pm 34.8 35.7 24.0 53 7.6 NNW 26 33 14 18 1004.4 1004.1 0.0
16/03:30pm 35.1 35.0 22.9 49 8.5 NNW 28 35 15 19 1004.5 1004.2 0.0
16/03:00pm 35.1 36.2 23.7 51 8.0 N 24 33 13 18 1004.6 1004.3 0.0
16/02:30pm 35.7 37.2 23.1 48 8.8 NNW 20 32 11 17 1004.9 1004.6 0.0
16/02:00pm 35.4 37.1 23.4 50 8.4 NNW 20 28 11 15 1005.2 1004.9 0.0
16/01:30pm 35.9 37.9 24.0 50 8.4 N 20 30 11 16 1005.5 1005.2 0.0
16/01:00pm 35.6 38.0 24.6 53 7.8 NNW 20 28 11 15 1005.9 1005.6 0.0
16/12:30pm 34.6 36.9 25.0 57 6.8 N 22 33 12 18 1006.0 1005.7 0.0
16/12:00pm 34.9 37.7 25.2 57 6.9 NNW 20 28 11 15 1006.4 1006.1 0.0
16/11:30am 33.6 36.6 25.3 62 5.9 NNW 19 26 10 14 1006.8 1006.5 0.0
16/11:00am 33.3 36.8 25.4 63 5.6 NNW 17 24 9 13 1007.2 1006.9 0.0
16/10:30am 33.0 37.1 25.7 65 5.2 NNW 15 22 8 12 1007.5 1007.1 0.0
16/10:00am 33.3 36.8 25.4 63 5.6 NW 17 26 9 14 1007.7 1007.3 0.0
16/09:30am 32.4 35.3 25.1 65 5.2 NW 19 26 10 14 1008.0 1007.6 0.0
16/09:00am 31.5 35.0 25.4 70 4.3 NW 17 26 9 14 1008.0 1007.6 0.8
16/08:30am 31.0 35.2 26.0 74 3.6 WNW 15 24 8 13 1008.2 1007.8 0.8
16/08:00am 30.4 34.8 26.2 78 3.0 WNW 15 24 8 13 1008.2 1007.8 0.8
16/07:30am 29.7 34.7 26.5 83 2.3 WNW 13 20 7 11 1008.0 1007.6 0.8
16/07:00am 28.9 34.2 27.0 89 1.4 NNW 13 19 7 10 1007.6 1007.2 0.8
16/06:30am 27.8 34.2 27.0 95 0.6 NW 7 9 4 5 1007.3 1007.0 0.8
16/06:00am 27.4 33.6 26.6 95 0.6 NW 7 9 4 5 1006.9 1006.6 0.8
16/05:30am 27.6 33.0 26.6 94 0.7 N 11 13 6 7 1006.5 1006.2 0.8
16/05:00am 27.6 33.0 26.6 94 0.7 NNW 11 13 6 7 1006.0 1005.7 0.8
16/04:30am 27.9 32.5 26.6 93 0.9 NNW 15 17 8 9 1005.8 1005.5 0.8
16/04:00am 28.0 32.5 26.9 94 0.8 NNW 17 22 9 12 1005.8 1005.5 0.8
16/03:30am 27.8 33.0 26.8 94 0.7 N 13 15 7 8 1005.6 1005.3 0.8
16/03:23am 27.8 33.0 26.8 94 0.7 NNW 13 15 7 8 1005.6 1005.3 0.8
16/03:00am 27.8 33.3 26.8 94 0.7 NNW 11 15 6 8 1005.6 1005.3 0.8
16/02:48am 27.7 32.9 26.9 95 0.6 NNW 13 15 7 8 1005.6 1005.3 0.8
16/02:37am 27.6 32.8 26.8 95 0.6 NNW 13 15 7 8 1005.7 1005.4 0.8
16/02:30am 27.6 32.8 26.8 95 0.6 NNW 13 15 7 8 1005.9 1005.6 0.8
16/02:04am 27.4 33.3 26.7 96 0.5 NNW 9 11 5 6 1006.1 1005.8 0.8
16/02:00am 27.5 33.4 26.7 95 0.6 NNW 9 11 5 6 1006.1 1005.8 0.8
16/01:30am 27.5 33.4 26.7 95 0.6 NW 9 11 5 6 1006.2 1005.9 0.8
16/01:14am 27.7 32.8 26.7 94 0.7 NNW 13 17 7 9 1006.1 1005.8 0.8
16/01:00am 27.7 33.2 26.7 94 0.7 NW 11 15 6 8 1006.2 1005.9 0.8
16/12:51am 27.5 33.4 26.7 95 0.6 NW 9 11 5 6 1006.3 1006.0 0.8
16/12:30am 27.2 32.9 26.4 95 0.6 NNW 9 11 5 6 1006.2 1005.9 0.8
16/12:00am 27.3 33.3 26.3 94 0.7 N 7 13 4 7 1006.0 1005.7 0.8
 
Date/Time
CST
Temp
°C
App
Temp
°C
Dew
Point
°C
Rel
Hum
%
Delta-T
°C
Wind Press
QNH
hPa
Press
MSL
hPa
Rain since
9am
mm
Dir  Spd
km/h
Gust
km/h
Spd
kts
Gust
kts
15/11:30pm 27.5 34.9 26.4 94 0.8 CALM 0 0 0 0 1006.3 1006.0 0.8
15/11:00pm 27.4 33.6 26.3 94 0.8 NNW 6 7 3 4 1006.4 1006.1 0.8
15/10:30pm 27.5 33.5 26.4 94 0.8 NNW 7 9 4 5 1006.0 1005.7 0.8
15/10:00pm 27.8 33.8 26.4 92 1.0 N 7 11 4 6 1005.8 1005.5 0.8
15/09:30pm 27.9 34.0 26.5 92 1.0 NNW 7 9 4 5 1006.0 1005.7 0.8
15/09:00pm 28.1 33.9 26.1 89 1.4 NW 7 9 4 5 1005.7 1005.4 0.8
15/08:30pm 28.4 33.7 25.9 86 1.8 NW 9 11 5 6 1005.7 1005.4 0.8
15/08:00pm 28.7 35.4 26.0 85 1.9 NW 2 6 1 3 1005.3 1005.0 0.8
15/07:30pm 29.2 34.1 25.8 82 2.4 NNW 11 15 6 8 1005.1 1004.8 0.8
15/07:00pm 29.5 35.5 26.3 83 2.3 NNW 7 11 4 6 1004.8 1004.5 0.8
15/06:30pm 30.2 35.9 25.9 78 3.1 N 7 9 4 5 1004.4 1004.1 0.8
15/06:00pm 31.1 35.3 25.3 71 4.1 NNW 13 15 7 8 1004.1 1003.8 0.8
15/05:30pm 31.9 36.0 24.5 65 5.2 NW 11 15 6 8 1004.1 1003.8 0.8
15/05:00pm 31.3 35.5 24.8 68 4.6 WNW 11 19 6 10 1004.0 1003.7 0.8
15/04:30pm 31.3 34.5 24.3 66 4.9 NW 15 20 8 11 1003.9 1003.6 0.8
15/04:00pm 32.1 34.4 24.1 62 5.6 NW 19 24 10 13 1003.9 1003.6 0.8
15/03:30pm 32.1 35.5 24.0 62 5.7 WNW 13 19 7 10 1004.2 1003.9 0.8
15/03:00pm 31.4 34.4 24.0 65 5.2 NW 15 22 8 12 1004.3 1004.0 0.8
15/02:30pm 30.7 34.6 24.3 68 4.5 WNW 11 17 6 9 1004.5 1004.2 0.8
15/02:00pm 29.4 33.6 24.7 76 3.3 NNW 11 15 6 8 1005.1 1004.8 0.8
15/01:30pm 27.7 31.7 25.0 85 1.9 NW 13 19 7 10 1005.8 1005.5 0.6
15/01:00pm 27.4 30.6 24.4 84 2.1 NW 15 22 8 12 1006.3 1006.0 0.6
15/12:30pm 27.2 31.3 24.0 83 2.2 WNW 9 17 5 9 1006.8 1006.5 0.6
15/12:00pm 26.8 29.4 24.6 88 1.5 N 19 24 10 13 1006.6 1006.3 0.6
15/11:30am 26.4 31.0 24.8 91 1.1 NW 9 13 5 7 1007.0 1006.7 0.6
15/11:00am 25.9 30.1 24.8 94 0.8 NNW 11 13 6 7 1007.7 1007.3 0.6
15/10:30am 25.4 28.5 24.2 93 0.8 N 15 19 8 10 1007.9 1007.5 0.6
15/10:00am 25.2 29.3 24.5 96 0.5 N 11 13 6 7 1007.8 1007.4 0.6
15/09:30am 24.9 27.5 23.9 94 0.7 N 17 20 9 11 1008.1 1007.7 0.6
15/09:00am 24.5 28.0 23.5 94 0.7 NE 11 15 6 8 1008.2 1007.8 9.6
15/08:30am 24.4 28.2 23.4 94 0.7 NNE 9 13 5 7 1008.6 1008.2 9.4
15/08:00am 24.3 29.4 23.3 94 0.7 NW 2 7 1 4 1008.8 1008.4 9.0
15/07:30am 24.3 28.0 23.3 94 0.7 N 9 17 5 9 1007.9 1007.5 8.2
15/07:00am 24.6 27.6 22.7 89 1.3 SSW 11 15 6 8 1008.0 1007.6 7.6
15/06:53am 24.6 27.1 22.5 88 1.4 SW 13 19 7 10 1008.1 1007.7 7.6
15/06:33am 25.2 26.7 23.1 88 1.4 SW 20 39 11 21 1007.9 1007.5 7.2
15/06:30am 25.5 27.1 23.2 87 1.6 SW 20 39 11 21 1007.7 1007.3 6.2
15/06:00am 26.0 29.4 22.0 78 2.7 W 7 11 4 6 1005.8 1005.5 5.6
15/05:30am 26.3 29.0 22.1 77 2.8 WNW 11 20 6 11 1004.3 1004.0 5.6
15/05:00am 27.0 29.9 23.2 80 2.6 NW 13 17 7 9 1004.2 1003.9 5.6
15/04:53am 27.4 30.1 23.5 79 2.7 NW 15 19 8 10 1004.0 1003.7 5.6
15/04:35am 28.7 33.5 26.8 89 1.4 NNW 15 19 8 10 1003.8 1003.5 5.6
15/04:30am 28.6 33.4 26.8 90 1.3 NNW 15 19 8 10 1003.6 1003.3 5.6
15/04:00am 28.2 33.0 26.8 92 1.0 NNW 15 17 8 9 1003.6 1003.3 5.6
15/03:38am 27.8 33.1 26.5 93 0.9 N 11 15 6 8 1003.4 1003.1 5.6
15/03:30am 27.7 33.0 26.4 93 0.9 N 11 15 6 8 1003.5 1003.2 5.6
15/03:00am 27.6 34.0 25.5 88 1.5 NE 2 7 1 4 1003.7 1003.4 5.6
15/02:30am 26.9 33.5 25.2 90 1.2 CALM 0 0 0 0 1003.9 1003.6 5.6
15/02:15am 26.7 33.2 25.0 90 1.2 CALM 0 0 0 0 1003.9 1003.6 5.6
15/02:00am 26.4 32.7 24.7 90 1.2 CALM 0 0 0 0 1003.9 1003.6 5.6
15/01:30am 26.3 32.5 24.6 90 1.2 CALM 0 0 0 0 1004.4 1004.1 5.6
15/01:00am 26.4 31.4 24.5 89 1.3 NNW 6 7 3 4 1004.8 1004.5 5.6
15/12:30am 26.3 32.3 24.3 89 1.4 CALM 0 0 0 0 1005.4 1005.1 5.6
15/12:00am 26.2 30.8 24.2 89 1.4 NW 7 9 4 5 1005.6 1005.3 5.6
 
Date/Time
CST
Temp
°C
App
Temp
°C
Dew
Point
°C
Rel
Hum
%
Delta-T
°C
Wind Press
QNH
hPa
Press
MSL
hPa
Rain since
9am
mm
Dir  Spd
km/h
Gust
km/h
Spd
kts
Gust
kts
14/11:30pm 26.5 32.3 24.0 86 1.7 CALM 0 0 0 0 1005.5 1005.2 5.6
14/11:00pm 26.6 31.0 23.8 84 1.9 NW 7 11 4 6 1005.2 1004.9 5.6
14/10:30pm 26.9 29.7 23.6 82 2.3 NNW 15 19 8 10 1005.2 1004.9 5.6
14/10:00pm 27.2 30.3 24.2 84 2.1 NW 15 19 8 10 1005.1 1004.8 5.6
14/09:30pm 27.1 30.6 24.2 84 2.0 NW 13 19 7 10 1005.3 1005.0 5.6
14/09:00pm 26.8 29.9 24.1 85 1.9 NNW 15 19 8 10 1004.8 1004.5 5.6
14/08:30pm 26.8 30.6 24.1 85 1.9 N 11 13 6 7 1003.9 1003.6 5.6
14/08:00pm 26.5 29.8 23.9 85 1.8 N 13 15 7 8 1004.0 1003.7 5.6
14/07:30pm 26.6 29.3 23.5 83 2.1 NNW 15 19 8 10 1004.3 1004.0 5.6
14/07:00pm 26.7 29.2 23.8 84 2.0 NNW 17 20 9 11 1004.3 1004.0 5.6
14/06:30pm 27.4 31.6 24.1 82 2.3 N 9 15 5 8 1003.9 1003.6 5.4
14/06:05pm 27.5 27.9 23.7 80 2.6 NNW 28 50 15 27 1003.1 1002.7 5.4
14/06:00pm 28.2 32.3 26.4 90 1.3 NNE 17 28 9 15 1003.4 1003.1 5.4
14/05:47pm 28.4 34.5 27.0 92 1.0 ESE 9 17 5 9 1002.5 1002.1 5.4
14/05:30pm 28.7 34.9 27.2 92 1.1 SSE 9 13 5 7 1002.0 1001.6 5.4
14/05:23pm 29.3 35.4 27.1 88 1.6 SE 9 13 5 7 1002.3 1001.9 2.6
14/05:00pm 30.9 35.7 25.7 74 3.7 SE 11 15 6 8 1001.7 1001.3 0.2
14/04:30pm 29.4 35.0 26.3 83 2.2 NNE 9 13 5 7 1001.2 1000.8 0.2
14/04:00pm 29.0 33.0 26.2 85 2.0 SSE 17 28 9 15 1001.1 1000.7 0.2
14/03:56pm 29.4 33.0 25.6 80 2.7 SSE 17 28 9 15 1001.2 1000.8 0.0
14/03:30pm 34.5 36.3 23.2 51 7.9 WNW 19 26 10 14 1001.1 1000.7 0.0
14/03:00pm 34.1 35.8 23.4 53 7.5 WNW 20 32 11 17 1001.1 1000.7 0.0
14/02:30pm 34.6 36.2 23.3 52 7.9 WNW 20 32 11 17 1001.4 1001.0 0.0
14/02:00pm 34.4 35.3 23.4 52 7.7 NW 24 35 13 19 1001.8 1001.4 0.0
14/01:30pm 34.1 35.9 23.5 54 7.4 WNW 20 33 11 18 1002.0 1001.6 0.0
14/01:00pm 33.5 35.1 23.8 57 6.8 WNW 22 33 12 18 1002.3 1001.9 0.0
14/12:30pm 33.3 35.1 24.2 59 6.4 WNW 22 37 12 20 1002.5 1002.1 0.0
14/12:00pm 33.2 34.9 24.1 59 6.4 WNW 22 33 12 18 1002.9 1002.5 0.0
14/11:30am 32.4 34.1 24.0 61 5.9 W 22 39 12 21 1003.3 1002.9 0.0
14/11:00am 32.2 33.3 23.7 61 5.9 W 24 37 13 20 1003.5 1003.2 0.0
14/10:30am 32.3 33.2 23.9 61 5.9 WNW 26 43 14 23 1003.7 1003.4 0.0
14/10:00am 32.0 34.2 24.9 66 5.0 WNW 22 39 12 21 1003.9 1003.6 0.0
14/09:30am 31.0 34.9 26.1 75 3.5 W 17 28 9 15 1004.5 1004.2 0.0
14/09:00am 30.6 34.9 26.1 77 3.2 WNW 15 26 8 14 1004.6 1004.3 2.0
14/08:30am 30.2 34.1 26.0 78 3.0 WNW 17 30 9 16 1004.3 1004.0 2.0
14/08:00am 29.6 33.7 25.7 79 2.8 NW 15 26 8 14 1004.3 1004.0 2.0
14/07:30am 29.1 32.9 25.3 80 2.7 NW 15 20 8 11 1004.2 1003.9 2.0
14/07:00am 28.7 32.5 24.7 79 2.8 NW 13 19 7 10 1004.5 1004.2 2.0
14/06:30am 28.3 32.0 24.6 80 2.6 WNW 13 24 7 13 1004.6 1004.3 2.0
14/06:00am 28.1 31.3 24.4 80 2.6 W 15 22 8 12 1004.1 1003.8 2.0
14/05:30am 28.1 31.7 25.0 83 2.2 W 15 20 8 11 1003.4 1003.1 2.0
14/05:00am 28.2 31.5 25.1 83 2.2 WNW 17 24 9 13 1003.0 1002.6 1.8
14/04:30am 28.4 31.9 24.8 81 2.5 WNW 15 24 8 13 1002.7 1002.3 1.8
14/04:00am 28.9 31.5 23.9 74 3.5 WNW 17 32 9 17 1002.5 1002.1 1.8
14/03:50am 28.8 32.5 25.8 84 2.1 WNW 17 28 9 15 1002.2 1001.8 1.8
14/03:30am 28.9 33.3 26.8 88 1.5 NW 17 24 9 13 1002.1 1001.7 1.8
14/03:16am 28.9 32.9 26.7 88 1.6 NW 19 26 10 14 1001.8 1001.4 1.8
14/03:00am 28.8 32.2 26.7 88 1.5 NW 22 30 12 16 1001.7 1001.3 1.8
14/02:30am 28.5 31.6 26.8 90 1.2 NW 24 32 13 17 1002.1 1001.7 1.8
14/02:00am 28.2 33.4 26.8 92 1.0 NNW 13 28 7 15 1002.4 1002.0 1.8
14/01:30am 27.8 33.8 26.4 92 1.0 W 7 13 4 7 1003.0 1002.6 1.8
14/01:27am 27.9 33.6 26.4 91 1.1 W 9 13 5 7 1003.1 1002.7 1.8

Other Formats:

Comma delimited format used in spreadsheet applications
http://www.bom.gov.au/fwo/IDD60801/IDD60801.94150.axf

JavaScript Object Notation format (JSON) in row-major order
http://www.bom.gov.au/fwo/IDD60801/IDD60801.94150.json